Terminal Aerodrome Forecast
Issued by NWS

Home | Current Version | Previous Version | Text Only | Print | Product List | Glossary On
Versions: 1 2 3 4 5 6 7 8 9 10 11 12 13 14 15 16 17 18 19 20 21 22 23 24
000
FTUS44 KFWD 210910 AAA
TAFAFW
TAF AMD
KAFW 210910Z 2109/2206 14013KT P6SM OVC040
     FM211200 15012KT P6SM VCSH OVC030
     FM211400 14013KT 5SM -SHRA BR VCTS OVC012CB
      TEMPO 2115/2118 3SM SHRA BR OVC008
     FM211800 15015KT P6SM OVC010
     FM212300 36010KT P6SM VCTS BKN015CB
      TEMPO 2123/2201 3SM TSRA BKN015CB
     FM220200 34010KT P6SM OVC012=

USA.gov is the U.S. government's official web portal to all federal, state and local government web resources and services.